Flight Track Log - Related Links

Times and Time Zones

All times are in EDT time to prevent confusion due to time zone crossing. See the N721RL flight status page for this flight to view local times or setup timezone preferences in your user account.

Time Position Orientation Groundspeed Altitude Reporting Facility
EDT Latitude Longitude Course Direction KTS MPH feet Rate Location/Type
Sat 03:15:57 PM 39.6203 -106.9672 24° Northeast 206 237 8,400  Level Denver Center
Sat 03:16:58 PM 39.5683 -107.0169 216° Southwest 247 284 10,600 2,195 Climbing Denver Center
Sat 03:18:00 PM 39.6136 -107.0825 312° West 289 333 12,900 1,984 Climbing Denver Center
Sat 03:19:02 PM 39.6997 -107.0975 352° North 329 379 14,700 2,049 Climbing Denver Center
Sat 03:20:00 PM 40.1754 -106.3442 27° Northeast  Level FlightAware Approximate
Sat 03:20:03 PM 39.8006 -107.0822 North 375 432 17,100  Level Denver Center
Sat 03:21:00 PM 40.2876 -106.2785 24° Northeast  Level FlightAware Approximate
Sat 03:21:05 PM 39.8817 -106.9933 40° Northeast 382 440 19,100  Level Denver Center
Sat 03:22:07 PM 39.9731 -106.8633 47° Northeast 407 468 21,700 2,049 Climbing Denver Center
Sat 03:23:08 PM 40.0422 -106.7467 52° Northeast 423 487 23,300 2,049 Climbing Denver Center
Sat 03:24:10 PM 40.1253 -106.6050 52° Northeast 440 506 25,900 1,742 Climbing Denver Center
Sat 03:25:12 PM 40.1922 -106.4894 53° Northeast 452 520 26,900 1,366 Climbing Denver Center
Sat 03:26:13 PM 40.2936 -106.3211 52° Northeast 489 563 28,700 2,049 Climbing Denver Center
Sat 03:27:15 PM 40.3758 -106.1853 52° Northeast 496 571 31,100 2,129 Climbing Denver Center
Sat 03:28:17 PM 40.4600 -106.0353 54° Northeast 490 564 33,100 2,049 Climbing Denver Center
Sat 03:29:18 PM 40.5233 -105.8761 62° Northeast 490 564 35,300 2,585 Climbing Denver Center
Sat 03:30:20 PM 40.5747 -105.7150 67° East 482 555 38,400 2,129 Climbing Denver Center
Sat 03:31:22 PM 40.6203 -105.5650 68° East 448 516 39,700 1,113 Climbing Denver Center
Sat 03:32:24 PM 40.6678 -105.4086 68° East 456 525 40,700 1,415 Climbing Denver Center
Sat 03:33:25 PM 40.7161 -105.2514 68° East 461 531 42,600 1,610 Climbing Denver Center
Sat 03:34:27 PM 40.7703 -105.0694 68° East 448 516 44,000 1,065 Climbing Denver Center
Sat 03:35:29 PM 40.8158 -104.9175 68° East 444 511 44,800 484 Climbing Denver Center
Sat 03:36:31 PM 40.8608 -104.7653 69° East 444 511 45,000 98 Climbing Denver Center
Sat 03:37:32 PM 40.9075 -104.6147 68° East 443 510 45,000  Level Denver Center
Sat 03:38:47 PM 40.9633 -104.4217 69° East 459 528 45,000  Level Denver Center
Sat 03:39:48 PM 41.0142 -104.2478 69° East 468 539 45,000  Level Denver Center
Sat 03:40:50 PM 41.0586 -104.0942 69° East 467 537 45,000  Level Denver Center
Sat 03:41:52 PM 41.1103 -103.9150 69° East 467 537 45,000  Level Denver Center
Sat 03:42:54 PM 41.1542 -103.7625 69° East 465 535 45,000  Level Denver Center
Sat 03:43:56 PM 41.2053 -103.5850 69° East 463 533 45,000  Level Denver Center
Sat 03:44:58 PM 41.2483 -103.4325 69° East 463 533 45,000  Level Denver Center
Sat 03:45:59 PM 41.2983 -103.2553 69° East 460 529 45,000  Level Denver Center
Sat 03:47:01 PM 41.3394 -103.1053 70° East 454 522 45,000  Level Denver Center
Sat 03:48:03 PM 41.3894 -102.9281 69° East 458 527 45,000  Level Denver Center
Sat 03:49:05 PM 41.4306 -102.7758 70° East 459 528 45,000  Level Denver Center
Sat 03:50:07 PM 41.4733 -102.6197 70° East 467 537 45,000  Level Denver Center
Sat 03:51:09 PM 41.5253 -102.4317 70° East 470 541 45,000  Level Denver Center
Sat 03:52:10 PM 41.5672 -102.2764 70° East 466 536 45,000  Level Denver Center
Sat 03:53:12 PM 41.6169 -102.0964 70° East 462 532 45,000  Level Denver Center
Sat 03:54:14 PM 41.6597 -101.9403 70° East 464 534 45,000  Level Denver Center
Sat 03:55:16 PM 41.7014 -101.7836 70° East 467 537 45,000  Level Denver Center
Sat 03:56:17 PM 41.7486 -101.6039 71° East 458 527 45,000  Level Denver Center
Sat 03:57:19 PM 41.7894 -101.4500 70° East 457 526 45,000  Level Denver Center
Sat 03:58:21 PM 41.8369 -101.2683 71° East 460 529 45,000  Level Denver Center
Sat 03:59:23 PM 41.8758 -101.1142 71° East 457 526 45,000  Level Denver Center
Sat 04:00:24 PM 41.9233 -100.9325 71° East 460 529 45,000  Level Denver Center
Sat 04:01:26 PM 41.9608 -100.7794 72° East 452 520 45,000  Level Denver Center
Sat 04:02:28 PM 41.9994 -100.6333 70° East 438 504 45,000  Level Denver Center
Sat 04:03:30 PM 42.0422 -100.4589 72° East 440 506 45,000  Level Denver Center
Sat 04:04:23 PM 42.0722 -100.3411 71° East 437 503 45,000  Level Minneapolis Center
Sat 04:05:25 PM 42.1117 -100.1819 71° East 443 510 45,000  Level Minneapolis Center
Sat 04:06:26 PM 42.1506 -100.0214 72° East 448 516 45,000  Level Minneapolis Center
Sat 04:07:28 PM 42.1986 -99.8292 71° East 450 518 45,000  Level Minneapolis Center
Sat 04:08:29 PM 42.2375 -99.6689 72° East 450 518 45,000  Level Minneapolis Center
Sat 04:09:31 PM 42.2767 -99.5089 72° East 448 516 45,000  Level Minneapolis Center
Sat 04:10:32 PM 42.3144 -99.3478 72° East 448 516 45,000  Level Minneapolis Center
Sat 04:11:34 PM 42.3539 -99.1861 72° East 451 519 45,000  Level Minneapolis Center
Sat 04:12:35 PM 42.3928 -99.0244 72° East 452 520 45,000  Level Minneapolis Center
Sat 04:13:37 PM 42.4300 -98.8622 73° East 451 519 45,000  Level Minneapolis Center
Sat 04:14:38 PM 42.4669 -98.7006 73° East 450 518 45,000  Level Minneapolis Center
Sat 04:15:40 PM 42.4931 -98.5356 78° East 448 516 45,000  Level Minneapolis Center
Sat 04:16:42 PM 42.5206 -98.3367 79° East 446 513 45,000  Level Minneapolis Center
Sat 04:17:43 PM 42.5428 -98.1703 80° East 448 516 45,000  Level Minneapolis Center
Sat 04:18:45 PM 42.5658 -98.0011 79° East 454 522 45,000  Level Minneapolis Center
Sat 04:19:46 PM 42.5883 -97.8333 80° East 452 520 45,000  Level Minneapolis Center
Sat 04:20:48 PM 42.6125 -97.6533 80° East 454 522 45,000  Level Minneapolis Center
Sat 04:21:50 PM 42.6350 -97.4828 80° East 456 525 45,000  Level Minneapolis Center
Sat 04:22:51 PM 42.6564 -97.3136 80° East 455 524 45,000  Level Minneapolis Center
Sat 04:23:53 PM 42.6775 -97.1447 80° East 456 525 45,000  Level Minneapolis Center
Sat 04:24:55 PM 42.6986 -96.9781 80° East 454 522 45,000  Level Minneapolis Center
Sat 04:25:56 PM 42.7189 -96.8092 81° East 456 525 45,000  Level Minneapolis Center
Sat 04:27:10 PM 42.7442 -96.6064 80° East 455 524 45,000  Level Minneapolis Center
Sat 04:28:12 PM 42.7689 -96.4019 81° East 459 528 45,000  Level Minneapolis Center
Sat 04:29:14 PM 42.7894 -96.2325 81° East 458 527 45,000  Level Minneapolis Center
Sat 04:30:16 PM 42.8097 -96.0603 81° East 461 531 45,000  Level Minneapolis Center
Sat 04:31:18 PM 42.8292 -95.8908 81° East 457 526 45,000  Level Minneapolis Center
Sat 04:32:20 PM 42.8492 -95.7211 81° East 458 527 45,000  Level Minneapolis Center
Sat 04:33:21 PM 42.8725 -95.5156 81° East 460 529 45,000  Level Minneapolis Center
Sat 04:34:35 PM 42.8908 -95.3467 82° East 456 525 45,000  Level Minneapolis Center
Sat 04:35:37 PM 42.9122 -95.1464 82° East 450 518 45,000  Level Minneapolis Center
Sat 04:36:39 PM 42.9308 -94.9806 81° East 446 513 45,000  Level Minneapolis Center
Sat 04:37:41 PM 42.9486 -94.8139 82° East 447 514 45,000  Level Minneapolis Center
Sat 04:38:43 PM 42.9656 -94.6486 82° East 443 510 45,000  Level Minneapolis Center
Sat 04:39:45 PM 42.9819 -94.4822 82° East 447 514 45,000  Level Minneapolis Center
Sat 04:40:47 PM 43.0022 -94.2828 82° East 448 516 45,000  Level Minneapolis Center
Sat 04:41:49 PM 43.0178 -94.1167 83° East 446 513 45,000  Level Minneapolis Center
Sat 04:42:51 PM 43.0356 -93.9500 82° East 447 514 45,000  Level Minneapolis Center
Sat 04:43:53 PM 43.0514 -93.7822 83° East 448 516 45,000  Level Minneapolis Center
Sat 04:44:55 PM 43.0675 -93.6136 82° East 451 519 45,000  Level Minneapolis Center
Sat 04:45:57 PM 43.0864 -93.4114 83° East 451 519 45,000  Level Minneapolis Center
Sat 04:46:59 PM 43.0981 -93.2425 85° East 451 519 45,000  Level Minneapolis Center
Sat 04:48:01 PM 43.1014 -93.0742 88° East 450 518 45,000  Level Minneapolis Center
Sat 04:49:02 PM 43.1050 -92.9044 88° East 450 518 45,000  Level Minneapolis Center
Sat 04:50:04 PM 43.1094 -92.7344 88° East 450 518 45,000  Level Minneapolis Center
Sat 04:51:18 PM 43.1128 -92.5272 89° East 457 526 45,000  Level Minneapolis Center
Sat 04:52:21 PM 43.1172 -92.3228 88° East 453 521 45,000  Level Minneapolis Center
Sat 04:53:23 PM 43.1197 -92.1536 89° East 448 516 45,000  Level Minneapolis Center
Sat 04:54:37 PM 43.1233 -91.9844 88° East 447 514 45,000  Level Minneapolis Center
Sat 04:55:38 PM 43.1261 -91.8144 89° East 447 514 45,000  Level Minneapolis Center
Sat 04:56:41 PM 43.1303 -91.6106 88° East 446 513 45,000  Level Minneapolis Center
Sat 04:57:43 PM 43.1311 -91.4044 90° East 449 517 45,000  Level Minneapolis Center
Sat 04:58:44 PM 43.1317 -91.2342 90° East 449 517 45,000  Level Minneapolis Center
Sat 04:59:46 PM 43.1333 -91.0633 89° East 449 517 45,000  Level Minneapolis Center
Sat 05:00:48 PM 43.1336 -90.8914 90° East 452 520 45,000  Level Minneapolis Center
Sat 05:01:50 PM 43.1344 -90.7197 90° East 454 522 45,000  Level Minneapolis Center
Sat 05:02:52 PM 43.1344 -90.5486 90° East 453 521 45,000  Level Minneapolis Center
Sat 05:03:54 PM 43.1342 -90.3425 90° East 455 524 45,000  Level Minneapolis Center
Sat 05:04:55 PM 43.1339 -90.1783 90° East 458 527 45,000  Level Minneapolis Center
Sat 05:05:57 PM 43.1336 -90.0028 90° East 459 528 45,000  Level Minneapolis Center
Sat 05:06:59 PM 43.1333 -89.7981 90° East 459 528 45,000  Level Minneapolis Center
Sat 05:08:03 PM 43.1317 -89.6233 91° East 461 531 45,000  Level Chicago Center
Sat 05:09:05 PM 43.1306 -89.4494 90° East 458 527 45,000  Level Chicago Center
Sat 05:10:06 PM 43.1292 -89.2769 91° East 453 521 45,000  Level Chicago Center
Sat 05:11:08 PM 43.1275 -89.0747 91° East 453 521 45,000  Level Chicago Center
Sat 05:12:10 PM 43.1250 -88.9033 91° East 451 519 45,000  Level Chicago Center
Sat 05:13:12 PM 43.1222 -88.7297 91° East 457 526 45,000  Level Chicago Center
Sat 05:14:13 PM 43.1200 -88.5556 91° East 460 529 45,000  Level Chicago Center
Sat 05:15:15 PM 43.1175 -88.3822 91° East 459 528 45,000  Level Chicago Center
Sat 05:16:17 PM 43.1203 -88.1775 89° East 465 535 45,000  Level Chicago Center
Sat 05:17:19 PM 43.1286 -88.0025 86° East 465 535 45,000  Level Chicago Center
Sat 05:18:20 PM 43.1367 -87.8294 86° East 460 529 45,000  Level Chicago Center
Sat 05:19:22 PM 43.1447 -87.6547 86° East 460 529 45,000  Level Chicago Center
Sat 05:20:24 PM 43.1531 -87.4811 86° East 459 528 45,000  Level Chicago Center
Sat 05:21:26 PM 43.1617 -87.2858 86° East 459 528 45,000  Level Chicago Center
Sat 05:22:27 PM 43.1686 -87.1106 87° East 462 532 45,000  Level Chicago Center
Sat 05:23:29 PM 43.1761 -86.9347 87° East 463 533 45,000  Level Chicago Center
Sat 05:24:31 PM 43.1831 -86.7586 87° East 463 533 45,000  Level Chicago Center
Sat 05:25:33 PM 43.1878 -86.5831 88° East 462 532 45,000  Level Chicago Center
Sat 05:26:34 PM 43.1944 -86.4075 87° East 461 531 45,000  Level Chicago Center
Sat 05:27:36 PM 43.1961 -86.2311 89° East 461 531 45,000  Level Chicago Center
Sat 05:28:38 PM 43.1822 -86.0508 96° East 467 537 45,000  Level Chicago Center
Sat 05:29:40 PM 43.1669 -85.8669 96° East 471 542 45,000  Level Chicago Center
Sat 05:30:42 PM 43.1511 -85.6867 97° East 471 542 45,000  Level Chicago Center
Sat 05:31:43 PM 43.1322 -85.4767 97° East 463 533 45,000  Level Chicago Center
Sat 05:32:45 PM 43.1175 -85.3044 97° East 458 527 45,000  Level Chicago Center
Sat 05:33:47 PM 43.1019 -85.1322 97° East 457 526 45,000  Level Chicago Center
Sat 05:34:49 PM 43.0886 -84.9600 96° East 456 525 45,000  Level Chicago Center
Sat 05:35:51 PM 43.0947 -84.7900 87° East 450 518 45,000  Level Chicago Center
Sat 05:36:53 PM 43.1014 -84.6208 87° East 447 514 45,000  Level Chicago Center
Sat 05:37:55 PM 43.1103 -84.4139 87° East 454 522 45,000  Level Chicago Center
Sat 05:38:49 PM 43.1131 -84.2856 88° East 457 526 45,000  Level Cleveland Center
Sat 05:39:51 PM 43.1206 -84.0756 87° East 460 529 45,000  Level Cleveland Center
Sat 05:40:53 PM 43.1267 -83.9019 87° East 459 528 45,000  Level Cleveland Center
Sat 05:41:55 PM 43.1319 -83.7253 88° East 463 533 45,000  Level Cleveland Center
Sat 05:42:57 PM 43.1375 -83.5517 87° East 461 531 45,000  Level Cleveland Center
Sat 05:43:59 PM 43.1436 -83.3792 87° East 456 525 45,000  Level Cleveland Center
Sat 05:45:01 PM 43.1467 -83.2053 89° East 456 525 45,000  Level Cleveland Center
Sat 05:46:03 PM 43.1517 -83.0333 88° East 452 520 45,000  Level Cleveland Center
Sat 05:47:05 PM 43.1572 -82.8314 88° East 442 509 45,000  Level Cleveland Center
Sat 05:48:07 PM 43.1606 -82.6589 88° East 451 519 45,000  Level Cleveland Center
Sat 05:49:09 PM 43.1642 -82.4861 88° East 454 522 45,000  Level Cleveland Center
Sat 05:49:46 PM 43.1667 -82.3803 88° East 460 529 45,000  Level Cleveland Center
Sat 05:50:48 PM 43.1697 -82.2067 89° East 458 527 45,000  Level Cleveland Center
Sat 05:51:50 PM 43.1725 -82.0350 89° East 454 522 45,000  Level Cleveland Center
Sat 05:52:52 PM 43.1758 -81.8636 88° East 452 520 45,000  Level Cleveland Center
Sat 05:53:54 PM 43.1797 -81.6586 88° East 450 518 45,000  Level Cleveland Center
Sat 05:54:56 PM 43.1817 -81.4881 89° East 449 517 45,000  Level Cleveland Center
Sat 05:55:58 PM 43.1836 -81.3056 89° East 451 519 45,000  Level Cleveland Center
Sat 05:56:53 PM 43.1667 -81.1500 98° East 450 518 45,000  Level Toronto Center
Sat 05:57:53 PM 43.1667 -80.9667 90° East 460 529 45,000  Level Toronto Center
Sat 05:58:53 PM 43.1833 -80.7833 83° East 460 529 45,000  Level Toronto Center
Sat 05:59:53 PM 43.1833 -80.6000 90° East 460 529 45,000  Level Toronto Center
Sat 06:00:53 PM 43.1833 -80.4333 90° East 460 529 45,000  Level Toronto Center
Sat 06:01:53 PM 43.1833 -80.2500 90° East 460 529 45,000  Level Toronto Center
Sat 06:02:53 PM 43.1833 -80.0833 90° East 460 529 45,000  Level Toronto Center
Sat 06:03:53 PM 43.1833 -79.9000 90° East 460 529 45,000  Level Toronto Center
Sat 06:04:53 PM 43.1833 -79.7167 90° East 460 529 45,000  Level Toronto Center
Sat 06:05:53 PM 43.1833 -79.5333 90° East 460 529 45,000  Level Toronto Center
Sat 06:06:53 PM 43.1833 -79.3833 90° East 460 529 45,000  Level Toronto Center
Sat 06:07:52 PM 43.1833 -79.2000 90° East 460 529 45,000  Level Toronto Center
Sat 06:08:52 PM 43.1833 -79.0167 90° East 460 529 45,000  Level Toronto Center
Sat 06:09:52 PM 43.1833 -78.8500 90° East 460 529 45,000  Level Toronto Center
Sat 06:10:26 PM 43.1842 -78.7686 89° East 466 536 45,000  Level Cleveland Center
Sat 06:11:28 PM 43.1819 -78.5919 91° East 466 536 45,000  Level Cleveland Center
Sat 06:12:30 PM 43.1783 -78.4192 92° East 458 527 45,000  Level Cleveland Center
Sat 06:13:32 PM 43.1764 -78.2436 91° East 459 528 45,000  Level Cleveland Center
Sat 06:14:34 PM 43.1731 -78.0661 91° East 463 533 45,000  Level Cleveland Center
Sat 06:15:35 PM 43.1697 -77.8922 91° East 458 527 45,000  Level Cleveland Center
Sat 06:16:37 PM 43.1667 -77.7192 91° East 454 522 45,000  Level Cleveland Center
Sat 06:17:39 PM 43.1631 -77.5453 92° East 455 524 45,000  Level Cleveland Center
Sat 06:18:41 PM 43.1581 -77.3383 92° East 452 520 45,000  Level Cleveland Center
Sat 06:19:43 PM 43.1539 -77.1647 92° East 453 521 45,000  Level Cleveland Center
Sat 06:20:45 PM 43.1492 -76.9939 92° East 451 519 45,000  Level Cleveland Center
Sat 06:21:47 PM 43.1497 -76.8214 90° East 453 521 45,000 -49 Level Cleveland Center
Sat 06:22:48 PM 43.1567 -76.6600 87° East 451 519 44,900 -585 Descending Cleveland Center
Sat 06:23:50 PM 43.1644 -76.4511 87° East 460 529 43,800 -968 Descending Cleveland Center
Sat 06:24:52 PM 43.1697 -76.2803 88° East 453 521 42,900 -871 Descending Cleveland Center
Sat 06:25:54 PM 43.1750 -76.1083 88° East 452 520 42,000 -893 Descending Cleveland Center
Sat 06:26:53 PM 43.1667 -75.9000 93° East 450 518 41,100 -908 Descending Toronto Center
Sat 06:27:53 PM 43.1833 -75.7167 83° East 460 529 40,200 -900 Descending Toronto Center
Sat 06:28:53 PM 43.1667 -75.5333 97° East 470 541 39,300 -864 Descending Toronto Center
Sat 06:29:58 PM 43.1917 -75.4158 74° East 462 532 38,400 -977 Descending Boston Center
Sat 06:31:02 PM 43.1947 -75.2133 89° East 454 522 37,200 -1,344 Descending Boston Center
Sat 06:32:03 PM 43.2003 -75.0511 87° East 438 504 35,600 -1,672 Descending Boston Center
Sat 06:33:04 PM 43.2033 -74.8819 89° East 446 513 33,800 -1,820 Descending Boston Center
Sat 06:34:05 PM 43.2086 -74.7064 88° East 462 532 31,900 -1,918 Descending Boston Center
Sat 06:35:06 PM 43.2103 -74.5303 89° East 464 534 29,900 -1,403 Descending Boston Center
Sat 06:36:09 PM 43.2128 -74.3583 89° East 457 526 29,000 -435 Descending Boston Center
Sat 06:37:10 PM 43.2158 -74.1853 89° East 455 524 29,000  Level Boston Center
Sat 06:38:11 PM 43.2181 -73.9764 89° East 456 525 29,000  Level Boston Center
Sat 06:39:12 PM 43.2197 -73.8025 89° East 457 526 29,000 -629 Level Boston Center
Sat 06:40:15 PM 43.2222 -73.6214 89° East 456 525 27,700 -1,597 Descending Boston Center
Sat 06:41:16 PM 43.2233 -73.4519 89° East 448 516 25,700 -2,016 Descending Boston Center
Sat 06:42:17 PM 43.2244 -73.2803 89° East 433 498 23,600 -2,016 Descending Boston Center
Sat 06:43:18 PM 43.2253 -73.1183 90° East 425 489 21,600 -2,033 Descending Boston Center
Sat 06:44:18 PM 43.2256 -72.9636 90° East 409 471 19,500 -1,721 Descending Boston Center
Sat 06:45:20 PM 43.2256 -72.8144 90° East 395 455 18,100 -1,056 Descending Boston Center
Sat 06:46:23 PM 43.2264 -72.6675 90° East 387 445 17,300 -823 Descending Boston Center
Sat 06:47:24 PM 43.2256 -72.5219 90° East 383 441 16,400 -836 Descending Boston Center
Sat 06:48:25 PM 43.2261 -72.3783 90° East 380 437 15,600 -823 Descending Boston Center
Sat 06:49:28 PM 43.2250 -72.2158 90° East 372 428 14,700 -968 Descending Boston Center
Sat 06:50:29 PM 43.2203 -72.0778 93° East 362 417 13,600 -639 Descending Boston Center
Sat 06:51:30 PM 43.2147 -71.9400 93° East 364 419 13,400 -843 Descending Boston Center
Sat 06:52:30 PM 43.2092 -71.7953 93° East 351 404 11,900 -1,377 Descending Boston Center
Sat 06:53:32 PM 43.2042 -71.6792 93° East 307 353 10,600 -1,248 Descending Boston Center
Sat 06:54:11 PM 43.2000 -71.6000 94° East 295 339 9,800 -1,260 Descending KA90
Sat 06:55:12 PM 43.2000 -71.5000 90° East 289 333 8,500 -1,190 Descending KA90
Sat 06:56:12 PM 43.2000 -71.3833 90° East 281 323 7,400 -1,150 Descending KA90
Sat 06:57:12 PM 43.1833 -71.2833 103° East 275 316 6,200 -1,150 Descending KA90
Sat 06:58:12 PM 43.1833 -71.1833 90° East 271 312 5,100 -950 Descending KA90
Sat 06:59:12 PM 43.1667 -71.0833 103° East 274 315 4,300 -1,000 Descending KA90
Sat 07:00:12 PM 43.1500 -70.9833 103° East 267 307 3,100 -1,150 Descending KA90
Sat 07:01:12 PM 43.1333 -70.8833 103° East 236 272 2,000 -1,239 Descending KA90
Sat 07:01:44 PM 43.1267 -70.8644 116° Southeast 218 251 1,200 -1,239 Descending Boston Center
Sat 07:02:44 PM 43.0883 -70.8331 149° Southeast 151 174 100 4,820 Descending Boston Center
Sat 07:03:46 PM 43.0692 -70.8086 137° Southeast 134 154 11,000 10,548 Climbing Boston Center

Login

Don't have an account? Register now (free) for customized features, flight alerts, and more!